sensor_id;sensor_type;location;lat;lon;timestamp;pressure;altitude;pressure_sealevel;temperature;humidity
52957;BME280;38819;42.692;23.342;2024-01-30T00:01:09;97256.13;;;1.77;56.36
52957;BME280;38819;42.692;23.342;2024-01-30T00:03:34;97268.28;;;1.64;56.45
52957;BME280;38819;42.692;23.342;2024-01-30T00:06:00;97260.28;;;1.64;56.62
52957;BME280;38819;42.692;23.342;2024-01-30T00:08:26;97260.75;;;1.68;56.57
52957;BME280;38819;42.692;23.342;2024-01-30T00:10:51;97262.13;;;1.79;56.37
52957;BME280;38819;42.692;23.342;2024-01-30T00:13:16;97260.16;;;1.88;56.06
52957;BME280;38819;42.692;23.342;2024-01-30T00:15:44;97263.38;;;1.83;55.84
52957;BME280;38819;42.692;23.342;2024-01-30T00:18:09;97264.47;;;1.89;55.99
52957;BME280;38819;42.692;23.342;2024-01-30T00:20:35;97261.91;;;1.80;55.72
52957;BME280;38819;42.692;23.342;2024-01-30T00:23:00;97265.03;;;1.84;55.34
52957;BME280;38819;42.692;23.342;2024-01-30T00:25:26;97265.06;;;1.69;55.84
52957;BME280;38819;42.692;23.342;2024-01-30T00:27:52;97259.63;;;1.77;55.64
52957;BME280;38819;42.692;23.342;2024-01-30T00:30:17;97267.13;;;1.89;55.70
52957;BME280;38819;42.692;23.342;2024-01-30T00:32:42;97253.91;;;1.80;55.52
52957;BME280;38819;42.692;23.342;2024-01-30T00:35:08;97268.44;;;1.78;55.37
52957;BME280;38819;42.692;23.342;2024-01-30T00:37:35;97256.19;;;1.83;55.42
52957;BME280;38819;42.692;23.342;2024-01-30T00:40:00;97269.59;;;1.90;55.10
52957;BME280;38819;42.692;23.342;2024-01-30T00:42:26;97264.47;;;1.89;55.47
52957;BME280;38819;42.692;23.342;2024-01-30T00:44:51;97257.31;;;1.89;55.00
52957;BME280;38819;42.692;23.342;2024-01-30T00:47:16;97261.78;;;1.89;55.40
52957;BME280;38819;42.692;23.342;2024-01-30T00:49:42;97262.38;;;1.84;55.05
52957;BME280;38819;42.692;23.342;2024-01-30T00:52:07;97263.09;;;1.93;54.89
52957;BME280;38819;42.692;23.342;2024-01-30T00:54:32;97268.41;;;1.93;55.28
52957;BME280;38819;42.692;23.342;2024-01-30T00:56:58;97252.78;;;1.90;54.85
52957;BME280;38819;42.692;23.342;2024-01-30T00:59:23;97268.53;;;1.84;54.99
52957;BME280;38819;42.692;23.342;2024-01-30T01:01:49;97263.66;;;1.88;55.49
52957;BME280;38819;42.692;23.342;2024-01-30T01:04:14;97259.91;;;1.82;55.46
52957;BME280;38819;42.692;23.342;2024-01-30T01:06:39;97265.31;;;1.89;55.72
52957;BME280;38819;42.692;23.342;2024-01-30T01:09:07;97270.44;;;1.91;54.73
52957;BME280;38819;42.692;23.342;2024-01-30T01:11:33;97260.16;;;1.88;55.11
52957;BME280;38819;42.692;23.342;2024-01-30T01:13:58;97259.81;;;1.76;54.65
52957;BME280;38819;42.692;23.342;2024-01-30T01:16:24;97258.59;;;1.78;54.55
52957;BME280;38819;42.692;23.342;2024-01-30T01:18:49;97258.59;;;1.78;54.60
52957;BME280;38819;42.692;23.342;2024-01-30T01:21:14;97264.00;;;1.85;54.69
52957;BME280;38819;42.692;23.342;2024-01-30T01:23:40;97277.78;;;1.89;55.65
52957;BME280;38819;42.692;23.342;2024-01-30T01:26:05;97268.41;;;1.93;55.26
52957;BME280;38819;42.692;23.342;2024-01-30T01:28:30;97272.00;;;1.85;54.76
52957;BME280;38819;42.692;23.342;2024-01-30T01:30:56;97261.38;;;1.70;55.24
52957;BME280;38819;42.692;23.342;2024-01-30T01:33:24;97271.75;;;1.65;55.24
52957;BME280;38819;42.692;23.342;2024-01-30T01:35:50;97263.88;;;1.42;55.83
52957;BME280;38819;42.692;23.342;2024-01-30T01:38:15;97268.38;;;1.41;55.93
52957;BME280;38819;42.692;23.342;2024-01-30T01:40:40;97265.91;;;1.40;56.02
52957;BME280;38819;42.692;23.342;2024-01-30T01:43:06;97270.31;;;1.47;55.97
52957;BME280;38819;42.692;23.342;2024-01-30T01:45:31;97267.28;;;1.51;55.56
52957;BME280;38819;42.692;23.342;2024-01-30T01:47:57;97263.50;;;1.30;56.01
52957;BME280;38819;42.692;23.342;2024-01-30T01:50:22;97266.25;;;1.37;56.13
52957;BME280;38819;42.692;23.342;2024-01-30T01:52:49;97260.84;;;1.30;56.38
52957;BME280;38819;42.692;23.342;2024-01-30T01:55:15;97260.84;;;1.30;56.34
52957;BME280;38819;42.692;23.342;2024-01-30T01:57:42;97273.16;;;1.31;56.50
52957;BME280;38819;42.692;23.342;2024-01-30T02:00:09;97270.56;;;1.23;56.88
52957;BME280;38819;42.692;23.342;2024-01-30T02:02:36;97270.13;;;1.19;57.02
52957;BME280;38819;42.692;23.342;2024-01-30T02:05:02;97264.81;;;1.34;57.11
52957;BME280;38819;42.692;23.342;2024-01-30T02:07:28;97273.88;;;1.40;56.63
52957;BME280;38819;42.692;23.342;2024-01-30T02:09:54;97278.03;;;1.42;56.64
52957;BME280;38819;42.692;23.342;2024-01-30T02:12:19;97279.66;;;1.43;56.39
52957;BME280;38819;42.692;23.342;2024-01-30T02:14:48;97272.53;;;1.44;56.33
52957;BME280;38819;42.692;23.342;2024-01-30T02:17:15;97275.09;;;1.52;56.13
52957;BME280;38819;42.692;23.342;2024-01-30T02:19:40;97277.75;;;1.52;56.09
52957;BME280;38819;42.692;23.342;2024-01-30T02:22:07;97273.59;;;1.50;55.88
52957;BME280;38819;42.692;23.342;2024-01-30T02:24:32;97277.09;;;1.50;56.04
52957;BME280;38819;42.692;23.342;2024-01-30T02:26:58;97276.63;;;1.46;55.74
52957;BME280;38819;42.692;23.342;2024-01-30T02:29:23;97266.44;;;1.50;55.75
52957;BME280;38819;42.692;23.342;2024-01-30T02:31:49;97267.19;;;1.44;55.99
52957;BME280;38819;42.692;23.342;2024-01-30T02:34:14;97267.75;;;1.39;56.07
52957;BME280;38819;42.692;23.342;2024-01-30T02:36:43;97266.81;;;1.47;55.90
52957;BME280;38819;42.692;23.342;2024-01-30T02:39:09;97270.94;;;1.50;55.48
52957;BME280;38819;42.692;23.342;2024-01-30T02:41:34;97265.16;;;1.61;54.93
52957;BME280;38819;42.692;23.342;2024-01-30T02:44:00;97272.22;;;1.69;55.08
52957;BME280;38819;42.692;23.342;2024-01-30T02:46:25;97273.78;;;1.78;54.76
52957;BME280;38819;42.692;23.342;2024-01-30T02:48:51;97269.88;;;1.80;54.41
52957;BME280;38819;42.692;23.342;2024-01-30T02:51:16;97270.47;;;1.76;54.70
52957;BME280;38819;42.692;23.342;2024-01-30T02:53:42;97273.41;;;1.66;54.61
52957;BME280;38819;42.692;23.342;2024-01-30T02:56:07;97267.75;;;1.54;54.40
52957;BME280;38819;42.692;23.342;2024-01-30T02:58:35;97276.81;;;1.45;54.83
52957;BME280;38819;42.692;23.342;2024-01-30T03:01:00;97271.13;;;1.48;54.76
52957;BME280;38819;42.692;23.342;2024-01-30T03:03:25;97262.88;;;1.43;55.23
52957;BME280;38819;42.692;23.342;2024-01-30T03:05:51;97269.38;;;1.55;55.06
52957;BME280;38819;42.692;23.342;2024-01-30T03:08:16;97261.00;;;1.58;54.61
52957;BME280;38819;42.692;23.342;2024-01-30T03:10:41;97259.19;;;1.59;54.68
52957;BME280;38819;42.692;23.342;2024-01-30T03:13:07;97263.41;;;1.68;54.47
52957;BME280;38819;42.692;23.342;2024-01-30T03:15:32;97274.25;;;1.66;54.51
52957;BME280;38819;42.692;23.342;2024-01-30T03:17:57;97259.19;;;1.59;54.29
52957;BME280;38819;42.692;23.342;2024-01-30T03:20:23;97265.16;;;1.61;54.22
52957;BME280;38819;42.692;23.342;2024-01-30T03:22:49;97266.81;;;1.47;54.65
52957;BME280;38819;42.692;23.342;2024-01-30T03:25:14;97261.69;;;1.45;54.49
52957;BME280;38819;42.692;23.342;2024-01-30T03:27:40;97267.91;;;1.53;54.23
52957;BME280;38819;42.692;23.342;2024-01-30T03:30:06;97270.03;;;1.57;54.26
52957;BME280;38819;42.692;23.342;2024-01-30T03:32:31;97258.63;;;1.48;54.25
52957;BME280;38819;42.692;23.342;2024-01-30T03:34:57;97247.25;;;1.55;54.05
52957;BME280;38819;42.692;23.342;2024-01-30T03:37:23;97261.56;;;1.54;53.39
52957;BME280;38819;42.692;23.342;2024-01-30T03:39:48;97259.75;;;1.54;53.47
52957;BME280;38819;42.692;23.342;2024-01-30T03:42:14;97251.03;;;1.45;53.39
52957;BME280;38819;42.692;23.342;2024-01-30T03:44:39;97251.94;;;1.53;53.45
52957;BME280;38819;42.692;23.342;2024-01-30T03:47:04;97247.69;;;1.58;53.12
52957;BME280;38819;42.692;23.342;2024-01-30T03:49:30;97248.63;;;1.65;53.00
52957;BME280;38819;42.692;23.342;2024-01-30T03:51:55;97244.84;;;1.60;53.15
52957;BME280;38819;42.692;23.342;2024-01-30T03:54:20;97239.59;;;1.66;53.25
52957;BME280;38819;42.692;23.342;2024-01-30T03:56:46;97242.28;;;1.66;52.89
52957;BME280;38819;42.692;23.342;2024-01-30T03:59:12;97245.13;;;1.65;52.82
52957;BME280;38819;42.692;23.342;2024-01-30T04:01:37;97236.75;;;1.68;52.93
52957;BME280;38819;42.692;23.342;2024-01-30T04:04:03;97242.63;;;1.63;52.72
52957;BME280;38819;42.692;23.342;2024-01-30T04:06:29;97242.19;;;1.60;52.99
52957;BME280;38819;42.692;23.342;2024-01-30T04:08:54;97240.56;;;1.59;53.04
52957;BME280;38819;42.692;23.342;2024-01-30T04:11:20;97245.03;;;1.58;53.06
52957;BME280;38819;42.692;23.342;2024-01-30T04:13:45;97240.72;;;1.57;53.01
52957;BME280;38819;42.692;23.342;2024-01-30T04:16:20;97242.00;;;1.61;53.12
52957;BME280;38819;42.692;23.342;2024-01-30T04:18:47;97240.06;;;1.55;53.18
52957;BME280;38819;42.692;23.342;2024-01-30T04:21:12;97245.31;;;1.63;53.26
52957;BME280;38819;42.692;23.342;2024-01-30T04:23:37;97244.31;;;1.64;53.20
52957;BME280;38819;42.692;23.342;2024-01-30T04:26:04;97245.03;;;1.58;53.50
52957;BME280;38819;42.692;23.342;2024-01-30T04:28:29;97252.84;;;1.60;53.59
52957;BME280;38819;42.692;23.342;2024-01-30T04:30:55;97254.69;;;1.59;53.37
52957;BME280;38819;42.692;23.342;2024-01-30T04:33:20;97251.66;;;1.62;53.31
52957;BME280;38819;42.692;23.342;2024-01-30T04:35:45;97253.88;;;1.59;53.63
52957;BME280;38819;42.692;23.342;2024-01-30T04:38:11;97251.00;;;1.60;53.27
52957;BME280;38819;42.692;23.342;2024-01-30T04:40:36;97258.81;;;1.62;53.12
52957;BME280;38819;42.692;23.342;2024-01-30T04:43:02;97261.94;;;1.65;53.54
52957;BME280;38819;42.692;23.342;2024-01-30T04:45:27;97263.69;;;1.58;53.52
52957;BME280;38819;42.692;23.342;2024-01-30T04:47:52;97262.78;;;1.51;53.21
52957;BME280;38819;42.692;23.342;2024-01-30T04:50:18;97265.81;;;1.48;53.74
52957;BME280;38819;42.692;23.342;2024-01-30T04:52:44;97265.16;;;1.46;53.87
52957;BME280;38819;42.692;23.342;2024-01-30T04:55:09;97276.19;;;1.43;54.78
52957;BME280;38819;42.692;23.342;2024-01-30T04:57:34;97269.59;;;1.39;54.47
52957;BME280;38819;42.692;23.342;2024-01-30T05:00:00;97272.44;;;1.37;53.83
52957;BME280;38819;42.692;23.342;2024-01-30T05:02:25;97274.16;;;1.30;53.38
52957;BME280;38819;42.692;23.342;2024-01-30T05:04:51;97274.16;;;1.30;53.53
52957;BME280;38819;42.692;23.342;2024-01-30T05:07:16;97284.34;;;1.26;53.31
52957;BME280;38819;42.692;23.342;2024-01-30T05:09:41;97278.03;;;1.27;53.59
52957;BME280;38819;42.692;23.342;2024-01-30T05:12:07;97279.47;;;1.30;53.64
52957;BME280;38819;42.692;23.342;2024-01-30T05:14:32;97274.34;;;1.28;53.77
52957;BME280;38819;42.692;23.342;2024-01-30T05:16:58;97280.41;;;1.22;53.67
52957;BME280;38819;42.692;23.342;2024-01-30T05:19:23;97279.13;;;1.33;53.88
52957;BME280;38819;42.692;23.342;2024-01-30T05:21:49;97270.50;;;1.31;54.07
52957;BME280;38819;42.692;23.342;2024-01-30T05:24:15;97284.63;;;1.32;54.13
52957;BME280;38819;42.692;23.342;2024-01-30T05:26:40;97285.34;;;1.40;53.67
52957;BME280;38819;42.692;23.342;2024-01-30T05:29:06;97285.34;;;1.40;53.58
52957;BME280;38819;42.692;23.342;2024-01-30T05:31:32;97284.72;;;1.38;54.09
52957;BME280;38819;42.692;23.342;2024-01-30T05:33:58;97278.47;;;1.31;54.25
52957;BME280;38819;42.692;23.342;2024-01-30T05:36:24;97285.56;;;1.24;54.53
52957;BME280;38819;42.692;23.342;2024-01-30T05:38:49;97286.38;;;1.24;54.60
52957;BME280;38819;42.692;23.342;2024-01-30T05:41:14;97284.53;;;1.25;54.78
52957;BME280;38819;42.692;23.342;2024-01-30T05:43:40;97290.97;;;1.16;54.67
52957;BME280;38819;42.692;23.342;2024-01-30T05:46:06;97293.97;;;1.13;53.69
52957;BME280;38819;42.692;23.342;2024-01-30T05:48:31;97284.97;;;1.14;54.00
52957;BME280;38819;42.692;23.342;2024-01-30T05:50:57;97281.31;;;1.15;54.10
52957;BME280;38819;42.692;23.342;2024-01-30T05:53:22;97278.81;;;1.13;53.97
52957;BME280;38819;42.692;23.342;2024-01-30T05:55:48;97277.75;;;1.22;54.04
52957;BME280;38819;42.692;23.342;2024-01-30T05:58:13;97279.47;;;1.30;53.87
52957;BME280;38819;42.692;23.342;2024-01-30T06:00:38;97285.06;;;1.35;53.72
52957;BME280;38819;42.692;23.342;2024-01-30T06:03:04;97286.00;;;1.27;53.95
52957;BME280;38819;42.692;23.342;2024-01-30T06:05:29;97292.16;;;1.28;53.99
52957;BME280;38819;42.692;23.342;2024-01-30T06:07:55;97286.66;;;1.29;53.57
52957;BME280;38819;42.692;23.342;2024-01-30T06:10:20;97289.13;;;1.31;53.58
52957;BME280;38819;42.692;23.342;2024-01-30T06:12:45;97295.44;;;1.30;53.77
52957;BME280;38819;42.692;23.342;2024-01-30T06:15:11;97292.16;;;1.28;53.47
52957;BME280;38819;42.692;23.342;2024-01-30T06:17:38;97289.66;;;1.26;53.63
52957;BME280;38819;42.692;23.342;2024-01-30T06:20:04;97288.56;;;1.21;53.10
52957;BME280;38819;42.692;23.342;2024-01-30T06:22:29;97297.38;;;1.21;53.97
52957;BME280;38819;42.692;23.342;2024-01-30T06:24:54;97306.75;;;1.17;53.73
52957;BME280;38819;42.692;23.342;2024-01-30T06:27:20;97296.91;;;1.18;53.90
52957;BME280;38819;42.692;23.342;2024-01-30T06:29:45;97296.84;;;1.26;53.82
52957;BME280;38819;42.692;23.342;2024-01-30T06:32:11;97295.00;;;1.26;53.84
52957;BME280;38819;42.692;23.342;2024-01-30T06:34:36;97294.06;;;1.19;52.02
52957;BME280;38819;42.692;23.342;2024-01-30T06:37:03;97294.97;;;1.11;51.55
52957;BME280;38819;42.692;23.342;2024-01-30T06:39:29;97290.38;;;1.20;51.80
52957;BME280;38819;42.692;23.342;2024-01-30T06:41:54;97292.44;;;1.33;51.56
52957;BME280;38819;42.692;23.342;2024-01-30T06:44:19;97293.56;;;1.39;51.08
52957;BME280;38819;42.692;23.342;2024-01-30T06:46:45;97295.09;;;1.48;50.96
52957;BME280;38819;42.692;23.342;2024-01-30T06:49:10;97294.28;;;1.47;51.02
52957;BME280;38819;42.692;23.342;2024-01-30T06:51:35;97296.59;;;1.65;50.95
52957;BME280;38819;42.692;23.342;2024-01-30T06:54:01;97296.28;;;1.75;50.82
52957;BME280;38819;42.692;23.342;2024-01-30T06:56:26;97300.88;;;1.81;50.71
52957;BME280;38819;42.692;23.342;2024-01-30T06:58:51;97305.56;;;1.94;51.53
52957;BME280;38819;42.692;23.342;2024-01-30T07:01:17;97299.19;;;1.95;51.37
52957;BME280;38819;42.692;23.342;2024-01-30T07:03:43;97300.66;;;1.98;51.55
52957;BME280;38819;42.692;23.342;2024-01-30T07:06:09;97309.19;;;2.08;51.08
52957;BME280;38819;42.692;23.342;2024-01-30T07:08:36;97308.00;;;2.11;51.16
52957;BME280;38819;42.692;23.342;2024-01-30T07:11:02;97308.56;;;2.06;51.32
52957;BME280;38819;42.692;23.342;2024-01-30T07:13:27;97299.25;;;2.17;51.54
52957;BME280;38819;42.692;23.342;2024-01-30T07:15:53;97290.88;;;2.20;51.35
52957;BME280;38819;42.692;23.342;2024-01-30T07:18:19;97286.63;;;2.26;51.52
52957;BME280;38819;42.692;23.342;2024-01-30T07:20:44;97299.38;;;2.30;51.11
52957;BME280;38819;42.692;23.342;2024-01-30T07:23:15;97297.22;;;2.40;50.01
52957;BME280;38819;42.692;23.342;2024-01-30T07:25:45;97298.72;;;2.43;49.89
52957;BME280;38819;42.692;23.342;2024-01-30T07:28:10;97299.53;;;2.44;49.26
52957;BME280;38819;42.692;23.342;2024-01-30T07:30:37;97301.38;;;2.43;48.74
52957;BME280;38819;42.692;23.342;2024-01-30T07:33:03;97297.91;;;2.43;48.73
52957;BME280;38819;42.692;23.342;2024-01-30T07:35:28;97294.25;;;2.50;48.72
52957;BME280;38819;42.692;23.342;2024-01-30T07:37:53;97290.84;;;2.56;48.25
52957;BME280;38819;42.692;23.342;2024-01-30T07:40:19;97298.34;;;2.68;47.86
52957;BME280;38819;42.692;23.342;2024-01-30T07:42:44;97292.63;;;2.71;47.53
52957;BME280;38819;42.692;23.342;2024-01-30T07:45:10;97292.16;;;2.67;47.38
52957;BME280;38819;42.692;23.342;2024-01-30T07:47:35;97294.25;;;2.72;47.49
52957;BME280;38819;42.692;23.342;2024-01-30T07:50:01;97288.78;;;2.80;47.06
52957;BME280;38819;42.692;23.342;2024-01-30T07:52:26;97283.03;;;2.76;47.02
52957;BME280;38819;42.692;23.342;2024-01-30T07:54:51;97289.41;;;2.82;46.37
52957;BME280;38819;42.692;23.342;2024-01-30T07:57:17;97289.97;;;2.71;46.94
52957;BME280;38819;42.692;23.342;2024-01-30T07:59:43;97295.53;;;2.76;47.32
52957;BME280;38819;42.692;23.342;2024-01-30T08:02:12;97292.09;;;2.82;47.19
52957;BME280;38819;42.692;23.342;2024-01-30T08:04:37;97284.09;;;2.82;46.54
52957;BME280;38819;42.692;23.342;2024-01-30T08:07:03;97284.31;;;2.87;46.38
52957;BME280;38819;42.692;23.342;2024-01-30T08:09:28;97282.94;;;2.91;46.07
52957;BME280;38819;42.692;23.342;2024-01-30T08:11:54;97290.50;;;2.88;45.94
52957;BME280;38819;42.692;23.342;2024-01-30T08:14:19;97284.19;;;2.95;45.72
52957;BME280;38819;42.692;23.342;2024-01-30T08:16:44;97284.31;;;2.87;46.07
52957;BME280;38819;42.692;23.342;2024-01-30T08:19:10;97282.75;;;2.93;45.73
52957;BME280;38819;42.692;23.342;2024-01-30T08:21:35;97282.63;;;3.01;46.20
52957;BME280;38819;42.692;23.342;2024-01-30T08:24:05;97289.63;;;3.09;46.20
52957;BME280;38819;42.692;23.342;2024-01-30T08:26:31;97283.72;;;3.13;46.36
52957;BME280;38819;42.692;23.342;2024-01-30T08:28:57;97288.44;;;3.11;46.74
52957;BME280;38819;42.692;23.342;2024-01-30T08:31:22;97288.69;;;3.17;46.62
52957;BME280;38819;42.692;23.342;2024-01-30T08:33:48;97295.16;;;3.07;46.15
52957;BME280;38819;42.692;23.342;2024-01-30T08:36:13;97295.22;;;3.14;45.63
52957;BME280;38819;42.692;23.342;2024-01-30T08:38:39;97298.88;;;3.06;45.15
52957;BME280;38819;42.692;23.342;2024-01-30T08:41:04;97295.34;;;2.77;45.69
52957;BME280;38819;42.692;23.342;2024-01-30T08:43:30;97295.22;;;2.64;46.01
52957;BME280;38819;42.692;23.342;2024-01-30T08:45:59;97296.88;;;2.65;46.16
52957;BME280;38819;42.692;23.342;2024-01-30T08:48:24;97286.50;;;2.77;46.12
52957;BME280;38819;42.692;23.342;2024-01-30T08:50:50;97306.34;;;2.46;47.25
52957;BME280;38819;42.692;23.342;2024-01-30T08:53:16;97305.75;;;2.29;47.79
52957;BME280;38819;42.692;23.342;2024-01-30T08:55:41;97306.13;;;2.26;47.94
52957;BME280;38819;42.692;23.342;2024-01-30T08:58:06;97307.00;;;2.33;47.83
52957;BME280;38819;42.692;23.342;2024-01-30T09:00:32;97299.66;;;2.57;47.58
52957;BME280;38819;42.692;23.342;2024-01-30T09:02:57;97306.84;;;2.78;47.54
52957;BME280;38819;42.692;23.342;2024-01-30T09:05:22;97302.88;;;2.95;47.18
52957;BME280;38819;42.692;23.342;2024-01-30T09:07:48;97296.22;;;3.06;47.11
52957;BME280;38819;42.692;23.342;2024-01-30T09:10:13;97288.88;;;3.15;47.82
52957;BME280;38819;42.692;23.342;2024-01-30T09:12:39;97291.38;;;2.95;47.63
52957;BME280;38819;42.692;23.342;2024-01-30T09:15:04;97303.47;;;2.91;48.21
52957;BME280;38819;42.692;23.342;2024-01-30T09:17:30;97298.38;;;2.96;47.42
52957;BME280;38819;42.692;23.342;2024-01-30T09:19:55;97312.16;;;3.00;47.59
52957;BME280;38819;42.692;23.342;2024-01-30T09:22:21;97311.66;;;2.46;49.27
52957;BME280;38819;42.692;23.342;2024-01-30T09:24:46;97296.53;;;2.32;49.96
52957;BME280;38819;42.692;23.342;2024-01-30T09:27:12;97293.16;;;2.23;50.39
52957;BME280;38819;42.692;23.342;2024-01-30T09:29:37;97290.06;;;2.19;50.17
52957;BME280;38819;42.692;23.342;2024-01-30T09:32:04;97300.66;;;1.98;50.46
52957;BME280;38819;42.692;23.342;2024-01-30T09:34:29;97305.00;;;1.84;51.19
52957;BME280;38819;42.692;23.342;2024-01-30T09:36:54;97293.16;;;1.72;51.80
52957;BME280;38819;42.692;23.342;2024-01-30T09:39:20;97287.63;;;1.88;51.12
52957;BME280;38819;42.692;23.342;2024-01-30T09:41:49;97291.09;;;2.03;50.85
52957;BME280;38819;42.692;23.342;2024-01-30T09:44:17;97296.34;;;1.97;51.06
52957;BME280;38819;42.692;23.342;2024-01-30T09:46:47;97290.72;;;2.07;50.98
52957;BME280;38819;42.692;23.342;2024-01-30T09:49:13;97283.59;;;1.92;51.05
52957;BME280;38819;42.692;23.342;2024-01-30T09:51:39;97273.38;;;1.96;51.03
52957;BME280;38819;42.692;23.342;2024-01-30T09:54:08;97280.19;;;1.83;51.44
52957;BME280;38819;42.692;23.342;2024-01-30T09:56:33;97273.59;;;1.79;51.59
52957;BME280;38819;42.692;23.342;2024-01-30T09:58:59;97282.94;;;1.75;51.77
52957;BME280;38819;42.692;23.342;2024-01-30T10:01:25;97275.00;;;1.97;51.19
52957;BME280;38819;42.692;23.342;2024-01-30T10:03:51;97273.03;;;2.20;51.05
52957;BME280;38819;42.692;23.342;2024-01-30T10:06:18;97273.16;;;2.34;50.31
52957;BME280;38819;42.692;23.342;2024-01-30T10:08:43;97269.44;;;2.50;50.01
52957;BME280;38819;42.692;23.342;2024-01-30T10:11:09;97268.44;;;2.51;49.94
52957;BME280;38819;42.692;23.342;2024-01-30T10:13:34;97277.00;;;2.46;49.37
52957;BME280;38819;42.692;23.342;2024-01-30T10:16:00;97274.44;;;2.38;49.88
52957;BME280;38819;42.692;23.342;2024-01-30T10:18:28;97264.09;;;2.28;49.54
52957;BME280;38819;42.692;23.342;2024-01-30T10:20:54;97272.41;;;2.40;49.73
52957;BME280;38819;42.692;23.342;2024-01-30T10:23:19;97266.31;;;2.46;49.32
52957;BME280;38819;42.692;23.342;2024-01-30T10:25:45;97269.56;;;2.41;49.68
52957;BME280;38819;42.692;23.342;2024-01-30T10:28:11;97262.56;;;2.40;49.29
52957;BME280;38819;42.692;23.342;2024-01-30T10:30:36;97267.72;;;2.42;49.64
52957;BME280;38819;42.692;23.342;2024-01-30T10:33:02;97269.41;;;2.28;49.82
52957;BME280;38819;42.692;23.342;2024-01-30T10:35:28;97268.38;;;2.44;49.71
52957;BME280;38819;42.692;23.342;2024-01-30T10:37:56;97271.03;;;2.66;49.15
52957;BME280;38819;42.692;23.342;2024-01-30T10:40:27;97262.63;;;2.69;48.80
52957;BME280;38819;42.692;23.342;2024-01-30T10:42:55;97263.19;;;2.86;49.06
52957;BME280;38819;42.692;23.342;2024-01-30T10:45:22;97267.31;;;2.88;48.79
52957;BME280;38819;42.692;23.342;2024-01-30T10:47:53;97257.84;;;2.86;48.11
52957;BME280;38819;42.692;23.342;2024-01-30T10:50:18;97259.63;;;2.35;49.09
52957;BME280;38819;42.692;23.342;2024-01-30T10:52:45;97265.56;;;2.31;49.58
52957;BME280;38819;42.692;23.342;2024-01-30T10:55:12;97255.44;;;2.04;50.19
52957;BME280;38819;42.692;23.342;2024-01-30T10:57:39;97254.50;;;2.12;50.12
52957;BME280;38819;42.692;23.342;2024-01-30T11:00:09;97246.72;;;2.32;49.84
52957;BME280;38819;42.692;23.342;2024-01-30T11:02:38;97230.84;;;2.24;50.55
52957;BME280;38819;42.692;23.342;2024-01-30T11:05:05;97224.59;;;2.38;50.15
52957;BME280;38819;42.692;23.342;2024-01-30T11:07:31;97233.09;;;2.49;49.74
52957;BME280;38819;42.692;23.342;2024-01-30T11:12:29;97229.16;;;2.45;49.92
52957;BME280;38819;42.692;23.342;2024-01-30T11:15:14;97230.00;;;2.45;49.69
52957;BME280;38819;42.692;23.342;2024-01-30T11:18:00;97222.22;;;2.72;49.64
52957;BME280;38819;42.692;23.342;2024-01-30T11:20:27;97225.66;;;2.94;49.41
52957;BME280;38819;42.692;23.342;2024-01-30T11:22:58;97221.53;;;2.91;49.20
52957;BME280;38819;42.692;23.342;2024-01-30T11:25:24;97222.44;;;2.77;48.96
52957;BME280;38819;42.692;23.342;2024-01-30T11:27:54;97218.34;;;2.74;48.59
52957;BME280;38819;42.692;23.342;2024-01-30T11:30:27;97219.50;;;2.65;48.93
52957;BME280;38819;42.692;23.342;2024-01-30T11:33:07;97215.94;;;2.58;49.26
52957;BME280;38819;42.692;23.342;2024-01-30T11:38:04;97227.53;;;2.72;48.89
52957;BME280;38819;42.692;23.342;2024-01-30T11:40:31;97222.69;;;2.82;48.75
52957;BME280;38819;42.692;23.342;2024-01-30T11:42:58;97226.50;;;2.94;48.58
52957;BME280;38819;42.692;23.342;2024-01-30T11:45:24;97217.53;;;3.09;47.99
52957;BME280;38819;42.692;23.342;2024-01-30T11:47:49;97217.34;;;3.10;47.92
52957;BME280;38819;42.692;23.342;2024-01-30T11:50:15;97227.59;;;3.07;48.27
52957;BME280;38819;42.692;23.342;2024-01-30T11:52:41;97226.84;;;2.85;48.21
52957;BME280;38819;42.692;23.342;2024-01-30T11:55:08;97218.63;;;2.86;48.54
52957;BME280;38819;42.692;23.342;2024-01-30T11:57:34;97214.16;;;2.65;48.60
52957;BME280;38819;42.692;23.342;2024-01-30T12:00:03;97206.72;;;2.60;49.51
52957;BME280;38819;42.692;23.342;2024-01-30T12:02:35;97199.66;;;2.74;49.22
52957;BME280;38819;42.692;23.342;2024-01-30T12:05:05;97195.84;;;2.62;49.33
52957;BME280;38819;42.692;23.342;2024-01-30T12:07:31;97189.06;;;2.59;49.77
52957;BME280;38819;42.692;23.342;2024-01-30T12:09:56;97176.63;;;2.45;50.37
52957;BME280;38819;42.692;23.342;2024-01-30T12:12:26;97175.34;;;2.63;49.87
52957;BME280;38819;42.692;23.342;2024-01-30T12:14:52;97172.19;;;2.81;49.94
52957;BME280;38819;42.692;23.342;2024-01-30T12:17:28;97174.94;;;2.94;49.01
52957;BME280;38819;42.692;23.342;2024-01-30T12:20:12;97165.75;;;3.03;48.52
52957;BME280;38819;42.692;23.342;2024-01-30T12:22:46;97165.03;;;3.16;48.00
52957;BME280;38819;42.692;23.342;2024-01-30T12:25:13;97170.38;;;3.16;48.35
52957;BME280;38819;42.692;23.342;2024-01-30T12:27:42;97169.94;;;3.12;48.50
52957;BME280;38819;42.692;23.342;2024-01-30T12:30:08;97171.34;;;3.08;48.33
52957;BME280;38819;42.692;23.342;2024-01-30T12:32:35;97158.84;;;3.15;48.25
52957;BME280;38819;42.692;23.342;2024-01-30T12:35:01;97168.66;;;3.08;48.34
52957;BME280;38819;42.692;23.342;2024-01-30T12:37:27;97159.84;;;3.08;48.35
52957;BME280;38819;42.692;23.342;2024-01-30T12:39:52;97158.25;;;3.20;48.30
52957;BME280;38819;42.692;23.342;2024-01-30T12:42:20;97156.25;;;3.36;48.12
52957;BME280;38819;42.692;23.342;2024-01-30T12:44:49;97154.28;;;3.44;47.65
52957;BME280;38819;42.692;23.342;2024-01-30T12:47:15;97153.44;;;3.50;47.40
52957;BME280;38819;42.692;23.342;2024-01-30T12:49:44;97151.31;;;3.26;47.32
52957;BME280;38819;42.692;23.342;2024-01-30T12:52:11;97149.78;;;3.10;47.83
52957;BME280;38819;42.692;23.342;2024-01-30T12:54:36;97146.06;;;3.04;47.89
52957;BME280;38819;42.692;23.342;2024-01-30T12:57:02;97141.94;;;3.02;48.21
52957;BME280;38819;42.692;23.342;2024-01-30T12:59:28;97143.25;;;3.12;48.13